createdAt,value
2022-12-20T00:02:35.022Z,101055.83
2022-12-20T00:07:52.216Z,101049.89
2022-12-20T00:12:56.665Z,101049.07
2022-12-20T00:18:00.334Z,101047.24
2022-12-20T00:23:04.071Z,101049.40
2022-12-20T00:28:07.595Z,101054.30
2022-12-20T00:33:11.017Z,101051.28
2022-12-20T00:38:15.054Z,101044.23
2022-12-20T00:43:21.706Z,101043.11
2022-12-20T00:48:26.132Z,101046.92
2022-12-20T00:53:30.908Z,101039.95
2022-12-20T00:58:36.612Z,101048.23
2022-12-20T01:03:40.306Z,101035.34
2022-12-20T01:08:44.078Z,101023.68
2022-12-20T01:13:49.957Z,101035.44
2022-12-20T01:18:54.055Z,101047.89
2022-12-20T01:23:58.175Z,101046.27
2022-12-20T01:29:01.700Z,101051.30
2022-12-20T01:34:07.990Z,101055.20
2022-12-20T01:39:16.043Z,101040.98
2022-12-20T01:44:19.556Z,101023.59
2022-12-20T01:49:33.085Z,101013.60
2022-12-20T01:54:54.050Z,100999.04
2022-12-20T01:59:57.805Z,100977.79
2022-12-20T02:05:01.785Z,100973.75
2022-12-20T02:10:08.361Z,100977.58
2022-12-20T02:15:33.203Z,100973.21
2022-12-20T02:20:47.455Z,100959.83
2022-12-20T02:25:50.806Z,100968.68
2022-12-20T02:30:55.191Z,100969.77
2022-12-20T02:36:04.283Z,100946.71
2022-12-20T02:41:13.933Z,100939.34
2022-12-20T02:46:19.496Z,100934.88
2022-12-20T02:51:24.512Z,100921.58
2022-12-20T02:56:29.477Z,100914.73
2022-12-20T03:01:46.808Z,100914.27
2022-12-20T03:07:02.844Z,100913.98
2022-12-20T03:12:08.086Z,100902.08
2022-12-20T03:17:13.454Z,100904.04
2022-12-20T03:22:17.135Z,100906.05
2022-12-20T03:27:21.188Z,100904.56
2022-12-20T03:32:25.149Z,100906.91
2022-12-20T03:37:28.742Z,100908.77
2022-12-20T03:42:32.779Z,100914.71
2022-12-20T03:47:36.376Z,100905.38
2022-12-20T03:52:40.504Z,100905.90
2022-12-20T03:57:43.994Z,100904.84
2022-12-20T04:03:02.025Z,100898.94
2022-12-20T04:08:07.238Z,100898.76
2022-12-20T04:13:11.022Z,100908.97
2022-12-20T04:18:14.797Z,100905.33
2022-12-20T04:23:19.048Z,100906.52
2022-12-20T04:28:25.006Z,100912.63
2022-12-20T04:33:30.049Z,100905.68
2022-12-20T04:38:34.101Z,100904.58
2022-12-20T04:43:38.195Z,100909.55
2022-12-20T04:48:59.520Z,100930.09
2022-12-20T04:54:04.640Z,100932.17
2022-12-20T04:59:15.516Z,100922.17
2022-12-20T05:04:20.939Z,100909.91
2022-12-20T05:09:24.546Z,100900.95
2022-12-20T05:14:31.276Z,100894.63
2022-12-20T05:19:36.741Z,100891.80
2022-12-20T05:24:59.260Z,100904.09
2022-12-20T05:30:08.500Z,100912.73
2022-12-20T05:35:13.962Z,100901.88
2022-12-20T05:40:28.270Z,100910.63
2022-12-20T05:45:39.094Z,100902.14
2022-12-20T05:50:49.576Z,100913.38
2022-12-20T05:56:04.239Z,100898.48
2022-12-20T06:01:13.201Z,100889.98
2022-12-20T06:06:17.833Z,100889.05
2022-12-20T06:11:29.604Z,100893.27
2022-12-20T06:16:42.772Z,100903.58
2022-12-20T06:22:00.477Z,100905.64
2022-12-20T06:27:38.859Z,100887.85
2022-12-20T06:32:49.993Z,100883.07
2022-12-20T06:37:53.685Z,100895.20
2022-12-20T06:42:58.754Z,100891.41
2022-12-20T06:48:03.843Z,100886.44
2022-12-20T06:53:14.327Z,100885.89
2022-12-20T06:58:20.191Z,100889.17
2022-12-20T07:03:25.767Z,100894.39
2022-12-20T07:08:29.332Z,100898.20
2022-12-20T07:13:33.215Z,100897.45
2022-12-20T07:18:36.746Z,100889.77
2022-12-20T07:23:40.932Z,100896.14
2022-12-20T07:28:45.758Z,100898.59
2022-12-20T07:33:49.450Z,100902.14
2022-12-20T07:38:53.052Z,100893.13
2022-12-20T07:43:59.588Z,100887.02
2022-12-20T07:49:06.607Z,100885.21
2022-12-20T07:54:21.388Z,100887.00
2022-12-20T07:59:30.404Z,100890.95
2022-12-20T08:04:34.528Z,100875.94
2022-12-20T08:09:41.419Z,100872.86
2022-12-20T08:14:59.928Z,100871.88
2022-12-20T08:20:07.145Z,100864.38
2022-12-20T08:25:12.253Z,100863.10
2022-12-20T08:30:15.949Z,100852.61
2022-12-20T08:35:19.673Z,100864.05
2022-12-20T08:40:23.312Z,100864.27
2022-12-20T08:45:27.091Z,100881.15
2022-12-20T08:50:30.589Z,100900.23
2022-12-20T08:55:34.267Z,100895.40
2022-12-20T09:00:39.056Z,100893.82
2022-12-20T09:05:49.928Z,100892.23
2022-12-20T09:11:06.851Z,100887.30
2022-12-20T09:16:12.277Z,100889.77
2022-12-20T09:21:15.923Z,100887.01
2022-12-20T09:26:22.410Z,100872.58
2022-12-20T09:31:26.433Z,100871.05
2022-12-20T09:36:30.488Z,100859.08
2022-12-20T09:41:41.110Z,100852.05
2022-12-20T09:46:45.369Z,100850.94
2022-12-20T09:52:01.881Z,100837.72
2022-12-20T09:57:27.077Z,100842.66
2022-12-20T10:02:58.424Z,100846.89
2022-12-20T10:08:08.637Z,100846.88
2022-12-20T10:13:15.829Z,100843.77
2022-12-20T10:18:59.554Z,100857.70
2022-12-20T10:24:15.989Z,100864.12
2022-12-20T10:29:21.568Z,100855.57
2022-12-20T10:34:33.294Z,100842.05
2022-12-20T10:39:48.409Z,100837.84
2022-12-20T10:44:56.105Z,100833.75
2022-12-20T10:50:25.404Z,100843.71
2022-12-20T10:55:42.533Z,100826.31
2022-12-20T11:01:14.660Z,100811.73
2022-12-20T11:06:20.692Z,100805.38
2022-12-20T11:11:25.743Z,100793.60
2022-12-20T11:16:48.013Z,100791.27
2022-12-20T11:22:12.152Z,100796.83
2022-12-20T11:27:28.610Z,100788.48
2022-12-20T11:32:32.360Z,100779.17
2022-12-20T11:38:09.935Z,100785.02
2022-12-20T11:44:01.088Z,100779.80
2022-12-20T11:49:22.147Z,100771.91
2022-12-20T11:54:39.171Z,100763.36
2022-12-20T11:59:51.386Z,100768.51
2022-12-20T12:05:01.985Z,100758.52
2022-12-20T12:10:22.525Z,100781.78
2022-12-20T12:15:42.203Z,100776.83
2022-12-20T12:20:48.839Z,100769.61
2022-12-20T12:25:53.383Z,100775.30
2022-12-20T12:31:15.220Z,100785.56
2022-12-20T12:36:41.943Z,100782.26
2022-12-20T12:42:26.885Z,100767.08
2022-12-20T12:47:38.634Z,100764.29
2022-12-20T12:52:56.170Z,100775.23
2022-12-20T12:58:33.796Z,100757.83
2022-12-20T13:03:40.099Z,100751.63
2022-12-20T13:08:59.070Z,100734.60
2022-12-20T13:14:20.862Z,100728.89
2022-12-20T13:19:27.371Z,100739.46
2022-12-20T13:24:53.383Z,100729.26
2022-12-20T13:30:00.027Z,100722.39
2022-12-20T13:35:25.906Z,100711.56
2022-12-20T13:40:43.279Z,100701.03
2022-12-20T13:45:49.742Z,100707.89
2022-12-20T13:50:57.634Z,100705.61
2022-12-20T13:56:41.177Z,100688.09
2022-12-20T14:01:53.691Z,100679.20
2022-12-20T14:07:00.473Z,100667.04
2022-12-20T14:12:28.721Z,100663.27
2022-12-20T14:17:39.871Z,100672.61
2022-12-20T14:23:04.972Z,100663.41
2022-12-20T14:28:35.445Z,100654.27
2022-12-20T14:33:40.683Z,100659.17
2022-12-20T14:38:47.051Z,100664.42
2022-12-20T14:43:56.391Z,100662.77
2022-12-20T14:49:31.991Z,100665.08
2022-12-20T15:00:18.405Z,100665.87
2022-12-20T15:05:42.547Z,100646.41
2022-12-20T15:11:25.099Z,100640.60
2022-12-20T15:16:32.156Z,100622.08
2022-12-20T15:21:46.529Z,100602.18
2022-12-20T15:26:53.997Z,100613.95
2022-12-20T15:32:17.450Z,100615.17
2022-12-20T15:37:24.100Z,100598.55
2022-12-20T15:42:28.734Z,100599.84
2022-12-20T15:47:41.645Z,100608.98
2022-12-20T15:52:53.744Z,100615.12
2022-12-20T15:58:04.528Z,100618.36
2022-12-20T16:03:25.338Z,100609.84
2022-12-20T16:08:36.698Z,100597.40
2022-12-20T16:13:46.384Z,100582.35
2022-12-20T16:18:58.333Z,100579.69
2022-12-20T16:24:07.258Z,100574.84
2022-12-20T16:29:24.307Z,100592.73
2022-12-20T16:34:56.131Z,100595.95
2022-12-20T16:40:28.430Z,100592.12
2022-12-20T16:45:51.628Z,100599.08
2022-12-20T16:51:25.733Z,100595.48
2022-12-20T16:56:38.089Z,100597.05
2022-12-20T17:02:01.293Z,100600.77
2022-12-20T17:07:14.175Z,100599.33
2022-12-20T17:12:25.515Z,100592.46
2022-12-20T17:17:34.813Z,100586.55
2022-12-20T17:28:17.338Z,100563.91
2022-12-20T17:33:23.928Z,100578.77
2022-12-20T17:38:29.777Z,100573.79
2022-12-20T17:43:41.468Z,100590.54
2022-12-20T17:48:47.233Z,100609.41
2022-12-20T17:53:56.396Z,100595.17
2022-12-20T17:59:04.346Z,100592.31
2022-12-20T18:04:10.195Z,100565.57
2022-12-20T18:09:18.896Z,100567.74
2022-12-20T18:14:22.630Z,100584.67
2022-12-20T18:19:26.111Z,100582.30
2022-12-20T18:24:29.946Z,100574.41
2022-12-20T18:29:33.512Z,100561.94
2022-12-20T18:34:37.467Z,100548.14
2022-12-20T18:39:40.971Z,100537.33
2022-12-20T18:44:48.437Z,100539.63
2022-12-20T18:49:51.881Z,100537.95
2022-12-20T18:54:57.290Z,100537.14
2022-12-20T19:00:03.712Z,100522.60
2022-12-20T19:05:07.994Z,100509.67
2022-12-20T19:10:12.097Z,100492.30
2022-12-20T19:15:22.526Z,100495.13
2022-12-20T19:20:26.256Z,100506.31
2022-12-20T19:25:32.907Z,100506.91
2022-12-20T19:30:49.363Z,100508.69
2022-12-20T19:35:58.204Z,100501.52
2022-12-20T19:41:05.699Z,100490.02
2022-12-20T19:46:28.402Z,100487.29
2022-12-20T19:51:42.785Z,100487.44
2022-12-20T19:57:01.323Z,100493.40
2022-12-20T20:02:29.136Z,100472.65
2022-12-20T20:07:37.888Z,100470.47
2022-12-20T20:12:48.586Z,100476.18
2022-12-20T20:18:38.496Z,100473.14
2022-12-20T20:24:02.876Z,100478.20
2022-12-20T20:29:13.573Z,100455.92
2022-12-20T20:34:22.334Z,100432.52
2022-12-20T20:39:51.626Z,100421.45
2022-12-20T20:44:58.618Z,100435.63
2022-12-20T20:50:16.807Z,100454.88
2022-12-20T20:55:28.298Z,100443.45
2022-12-20T21:00:48.101Z,100434.71
2022-12-20T21:06:40.632Z,100427.23
2022-12-20T21:12:07.565Z,100433.39
2022-12-20T21:17:14.540Z,100429.95
2022-12-20T21:22:26.730Z,100434.56
2022-12-20T21:27:32.541Z,100423.10
2022-12-20T21:32:41.974Z,100412.55
2022-12-20T21:43:44.062Z,100404.84
2022-12-20T21:48:52.398Z,100406.95
2022-12-20T21:54:01.218Z,100409.81
2022-12-20T21:59:09.142Z,100404.29
2022-12-20T22:04:14.158Z,100385.46
2022-12-20T22:09:17.852Z,100377.84
2022-12-20T22:14:23.375Z,100377.85
2022-12-20T22:19:30.051Z,100380.76
2022-12-20T22:24:33.767Z,100375.54
2022-12-20T22:29:40.162Z,100369.90
2022-12-20T22:34:48.972Z,100359.79
2022-12-20T22:39:53.492Z,100349.54
2022-12-20T22:45:00.854Z,100339.38
2022-12-20T22:50:05.696Z,100357.08
2022-12-20T22:55:09.991Z,100344.87
2022-12-20T23:00:15.743Z,100333.27
2022-12-20T23:05:19.285Z,100341.61
2022-12-20T23:10:46.055Z,100320.39
2022-12-20T23:15:49.600Z,100309.52
2022-12-20T23:21:13.081Z,100305.68
2022-12-20T23:26:17.564Z,100304.02
2022-12-20T23:31:21.167Z,100298.80
2022-12-20T23:36:25.404Z,100309.55
2022-12-20T23:41:29.055Z,100317.35
2022-12-20T23:46:33.095Z,100327.92
2022-12-20T23:51:36.535Z,100305.54
2022-12-20T23:56:40.553Z,100291.65
